sensor_id;sensor_type;location;lat;lon;timestamp;temperature;humidity
8340;DHT22;4207;49.314;7.162;2023-04-20T00:01:53;5.10;90.70
8340;DHT22;4207;49.314;7.162;2023-04-20T00:04:22;5.10;90.60
8340;DHT22;4207;49.314;7.162;2023-04-20T00:06:50;5.20;90.70
8340;DHT22;4207;49.314;7.162;2023-04-20T00:09:19;5.10;90.70
8340;DHT22;4207;49.314;7.162;2023-04-20T00:11:49;5.10;90.80
8340;DHT22;4207;49.314;7.162;2023-04-20T00:14:17;5.00;91.00
8340;DHT22;4207;49.314;7.162;2023-04-20T00:16:45;5.00;91.00
8340;DHT22;4207;49.314;7.162;2023-04-20T00:19:13;4.90;91.20
8340;DHT22;4207;49.314;7.162;2023-04-20T00:21:41;4.80;91.40
8340;DHT22;4207;49.314;7.162;2023-04-20T00:24:09;4.80;91.60
8340;DHT22;4207;49.314;7.162;2023-04-20T00:26:37;4.80;91.60
8340;DHT22;4207;49.314;7.162;2023-04-20T00:29:07;4.80;91.50
8340;DHT22;4207;49.314;7.162;2023-04-20T00:31:36;4.80;91.50
8340;DHT22;4207;49.314;7.162;2023-04-20T00:34:05;4.80;91.60
8340;DHT22;4207;49.314;7.162;2023-04-20T00:36:33;4.70;91.60
8340;DHT22;4207;49.314;7.162;2023-04-20T00:39:01;4.70;91.70
8340;DHT22;4207;49.314;7.162;2023-04-20T00:41:30;4.60;91.90
8340;DHT22;4207;49.314;7.162;2023-04-20T00:43:58;4.60;92.10
8340;DHT22;4207;49.314;7.162;2023-04-20T00:46:28;4.50;92.20
8340;DHT22;4207;49.314;7.162;2023-04-20T00:48:56;4.50;92.40
8340;DHT22;4207;49.314;7.162;2023-04-20T00:51:27;4.40;92.60
8340;DHT22;4207;49.314;7.162;2023-04-20T00:53:56;4.40;92.70
8340;DHT22;4207;49.314;7.162;2023-04-20T00:56:25;4.40;92.80
8340;DHT22;4207;49.314;7.162;2023-04-20T00:58:53;4.30;92.90
8340;DHT22;4207;49.314;7.162;2023-04-20T01:01:21;4.30;93.10
8340;DHT22;4207;49.314;7.162;2023-04-20T01:03:51;4.20;93.20
8340;DHT22;4207;49.314;7.162;2023-04-20T01:06:20;4.20;93.30
8340;DHT22;4207;49.314;7.162;2023-04-20T01:08:49;4.10;93.30
8340;DHT22;4207;49.314;7.162;2023-04-20T01:11:18;4.10;93.40
8340;DHT22;4207;49.314;7.162;2023-04-20T01:13:46;4.00;93.50
8340;DHT22;4207;49.314;7.162;2023-04-20T01:16:15;4.10;93.60
8340;DHT22;4207;49.314;7.162;2023-04-20T01:18:44;4.40;93.90
8340;DHT22;4207;49.314;7.162;2023-04-20T01:21:15;4.00;93.80
8340;DHT22;4207;49.314;7.162;2023-04-20T01:23:45;4.00;93.80
8340;DHT22;4207;49.314;7.162;2023-04-20T01:26:15;4.00;94.00
8340;DHT22;4207;49.314;7.162;2023-04-20T01:28:44;3.90;94.00
8340;DHT22;4207;49.314;7.162;2023-04-20T01:31:14;3.90;94.10
8340;DHT22;4207;49.314;7.162;2023-04-20T01:33:43;3.80;94.10
8340;DHT22;4207;49.314;7.162;2023-04-20T01:36:11;3.80;94.30
8340;DHT22;4207;49.314;7.162;2023-04-20T01:38:39;4.20;94.60
8340;DHT22;4207;49.314;7.162;2023-04-20T01:41:09;3.80;94.50
8340;DHT22;4207;49.314;7.162;2023-04-20T01:43:39;3.70;94.60
8340;DHT22;4207;49.314;7.162;2023-04-20T01:46:07;3.70;94.60
8340;DHT22;4207;49.314;7.162;2023-04-20T01:48:35;3.70;94.70
8340;DHT22;4207;49.314;7.162;2023-04-20T01:51:04;3.60;94.70
8340;DHT22;4207;49.314;7.162;2023-04-20T01:53:34;3.60;94.90
8340;DHT22;4207;49.314;7.162;2023-04-20T01:56:02;3.90;95.20
8340;DHT22;4207;49.314;7.162;2023-04-20T01:58:32;3.50;95.10
8340;DHT22;4207;49.314;7.162;2023-04-20T02:01:01;4.00;95.50
8340;DHT22;4207;49.314;7.162;2023-04-20T02:03:29;3.40;95.40
8340;DHT22;4207;49.314;7.162;2023-04-20T02:05:57;3.30;95.60
8340;DHT22;4207;49.314;7.162;2023-04-20T02:08:28;3.30;95.70
8340;DHT22;4207;49.314;7.162;2023-04-20T02:10:57;3.60;96.40
8340;DHT22;4207;49.314;7.162;2023-04-20T02:13:25;3.30;96.00
8340;DHT22;4207;49.314;7.162;2023-04-20T02:15:55;3.30;96.00
8340;DHT22;4207;49.314;7.162;2023-04-20T02:18:23;3.30;96.00
8340;DHT22;4207;49.314;7.162;2023-04-20T02:20:51;3.30;96.10
8340;DHT22;4207;49.314;7.162;2023-04-20T02:23:20;3.40;96.30
8340;DHT22;4207;49.314;7.162;2023-04-20T02:25:48;3.30;96.30
8340;DHT22;4207;49.314;7.162;2023-04-20T02:28:16;3.30;96.30
8340;DHT22;4207;49.314;7.162;2023-04-20T02:30:44;3.30;96.40
8340;DHT22;4207;49.314;7.162;2023-04-20T02:33:13;3.30;96.40
8340;DHT22;4207;49.314;7.162;2023-04-20T02:35:43;3.30;96.40
8340;DHT22;4207;49.314;7.162;2023-04-20T02:38:11;3.30;96.60
8340;DHT22;4207;49.314;7.162;2023-04-20T02:40:42;3.20;96.60
8340;DHT22;4207;49.314;7.162;2023-04-20T02:43:11;3.20;96.80
8340;DHT22;4207;49.314;7.162;2023-04-20T02:45:40;3.20;96.90
8340;DHT22;4207;49.314;7.162;2023-04-20T02:48:10;3.20;97.00
8340;DHT22;4207;49.314;7.162;2023-04-20T02:50:40;3.20;97.10
8340;DHT22;4207;49.314;7.162;2023-04-20T02:53:16;3.20;97.30
8340;DHT22;4207;49.314;7.162;2023-04-20T02:56:11;3.20;97.40
8340;DHT22;4207;49.314;7.162;2023-04-20T02:58:49;3.20;97.40
8340;DHT22;4207;49.314;7.162;2023-04-20T03:01:25;3.20;97.50
8340;DHT22;4207;49.314;7.162;2023-04-20T03:04:07;3.10;97.70
8340;DHT22;4207;49.314;7.162;2023-04-20T03:06:42;3.10;97.80
8340;DHT22;4207;49.314;7.162;2023-04-20T03:09:15;4.30;98.50
8340;DHT22;4207;49.314;7.162;2023-04-20T03:11:55;3.10;98.00
8340;DHT22;4207;49.314;7.162;2023-04-20T03:14:39;3.40;98.10
8340;DHT22;4207;49.314;7.162;2023-04-20T03:17:08;3.10;98.00
8340;DHT22;4207;49.314;7.162;2023-04-20T03:19:37;3.10;98.10
8340;DHT22;4207;49.314;7.162;2023-04-20T03:22:06;3.10;98.20
8340;DHT22;4207;49.314;7.162;2023-04-20T03:24:37;3.00;98.30
8340;DHT22;4207;49.314;7.162;2023-04-20T03:27:19;3.00;98.40
8340;DHT22;4207;49.314;7.162;2023-04-20T03:29:59;3.00;98.50
8340;DHT22;4207;49.314;7.162;2023-04-20T03:32:28;3.70;98.90
8340;DHT22;4207;49.314;7.162;2023-04-20T03:34:59;3.00;98.70
8340;DHT22;4207;49.314;7.162;2023-04-20T03:37:29;2.90;98.80
8340;DHT22;4207;49.314;7.162;2023-04-20T03:39:57;3.10;99.00
8340;DHT22;4207;49.314;7.162;2023-04-20T03:42:26;3.10;99.10
8340;DHT22;4207;49.314;7.162;2023-04-20T03:44:54;2.80;99.00
8340;DHT22;4207;49.314;7.162;2023-04-20T03:47:23;2.40;98.90
8340;DHT22;4207;49.314;7.162;2023-04-20T03:49:51;2.80;99.20
8340;DHT22;4207;49.314;7.162;2023-04-20T03:52:19;2.80;99.20
8340;DHT22;4207;49.314;7.162;2023-04-20T03:54:49;3.30;99.60
8340;DHT22;4207;49.314;7.162;2023-04-20T03:57:17;2.70;99.40
8340;DHT22;4207;49.314;7.162;2023-04-20T03:59:45;2.70;99.60
8340;DHT22;4207;49.314;7.162;2023-04-20T04:02:17;2.70;99.70
8340;DHT22;4207;49.314;7.162;2023-04-20T04:04:46;3.60;99.90
8340;DHT22;4207;49.314;7.162;2023-04-20T04:07:14;2.60;99.90
8340;DHT22;4207;49.314;7.162;2023-04-20T04:09:43;2.90;99.90
8340;DHT22;4207;49.314;7.162;2023-04-20T04:12:13;2.60;99.90
8340;DHT22;4207;49.314;7.162;2023-04-20T04:14:41;2.60;99.90
8340;DHT22;4207;49.314;7.162;2023-04-20T04:17:12;2.70;99.90
8340;DHT22;4207;49.314;7.162;2023-04-20T04:19:41;2.80;99.90
8340;DHT22;4207;49.314;7.162;2023-04-20T04:22:09;2.70;99.90
8340;DHT22;4207;49.314;7.162;2023-04-20T04:24:48;2.70;99.90
8340;DHT22;4207;49.314;7.162;2023-04-20T04:27:19;2.70;99.90
8340;DHT22;4207;49.314;7.162;2023-04-20T04:29:55;2.70;99.90
8340;DHT22;4207;49.314;7.162;2023-04-20T04:32:23;2.70;99.90
8340;DHT22;4207;49.314;7.162;2023-04-20T04:34:52;2.70;99.90
8340;DHT22;4207;49.314;7.162;2023-04-20T04:37:22;2.70;99.90
8340;DHT22;4207;49.314;7.162;2023-04-20T04:39:54;2.80;99.90
8340;DHT22;4207;49.314;7.162;2023-04-20T04:42:33;3.40;99.90
8340;DHT22;4207;49.314;7.162;2023-04-20T04:45:04;3.00;99.90
8340;DHT22;4207;49.314;7.162;2023-04-20T04:47:36;3.20;99.70
8340;DHT22;4207;49.314;7.162;2023-04-20T04:50:10;3.20;99.40
8340;DHT22;4207;49.314;7.162;2023-04-20T04:52:38;3.30;99.40
8340;DHT22;4207;49.314;7.162;2023-04-20T04:55:07;3.90;99.60
8340;DHT22;4207;49.314;7.162;2023-04-20T04:57:37;3.40;99.20
8340;DHT22;4207;49.314;7.162;2023-04-20T05:00:06;3.50;99.10
8340;DHT22;4207;49.314;7.162;2023-04-20T05:02:37;3.40;99.00
8340;DHT22;4207;49.314;7.162;2023-04-20T05:05:10;3.40;99.00
8340;DHT22;4207;49.314;7.162;2023-04-20T05:07:38;3.40;99.10
8340;DHT22;4207;49.314;7.162;2023-04-20T05:10:07;3.40;99.20
8340;DHT22;4207;49.314;7.162;2023-04-20T05:12:38;3.40;99.20
8340;DHT22;4207;49.314;7.162;2023-04-20T05:15:10;3.80;99.40
8340;DHT22;4207;49.314;7.162;2023-04-20T05:17:38;3.40;99.20
8340;DHT22;4207;49.314;7.162;2023-04-20T05:20:07;3.70;99.40
8340;DHT22;4207;49.314;7.162;2023-04-20T05:22:37;3.50;99.30
8340;DHT22;4207;49.314;7.162;2023-04-20T05:25:06;3.50;99.20
8340;DHT22;4207;49.314;7.162;2023-04-20T05:27:43;3.50;99.40
8340;DHT22;4207;49.314;7.162;2023-04-20T05:30:12;4.60;99.70
8340;DHT22;4207;49.314;7.162;2023-04-20T05:32:48;3.70;99.40
8340;DHT22;4207;49.314;7.162;2023-04-20T05:35:18;3.70;99.30
8340;DHT22;4207;49.314;7.162;2023-04-20T05:37:50;3.70;99.40
8340;DHT22;4207;49.314;7.162;2023-04-20T05:40:18;3.90;99.50
8340;DHT22;4207;49.314;7.162;2023-04-20T05:42:47;5.30;99.90
8340;DHT22;4207;49.314;7.162;2023-04-20T05:45:16;4.50;99.40
8340;DHT22;4207;49.314;7.162;2023-04-20T05:47:51;4.00;99.20
8340;DHT22;4207;49.314;7.162;2023-04-20T05:50:20;4.30;99.40
8340;DHT22;4207;49.314;7.162;2023-04-20T05:52:48;4.30;99.20
8340;DHT22;4207;49.314;7.162;2023-04-20T05:55:17;4.40;99.10
8340;DHT22;4207;49.314;7.162;2023-04-20T05:57:53;4.60;98.90
8340;DHT22;4207;49.314;7.162;2023-04-20T06:00:21;4.70;99.00
8340;DHT22;4207;49.314;7.162;2023-04-20T06:02:52;4.90;98.90
8340;DHT22;4207;49.314;7.162;2023-04-20T06:05:21;5.20;98.70
8340;DHT22;4207;49.314;7.162;2023-04-20T06:07:50;5.20;98.20
8340;DHT22;4207;49.314;7.162;2023-04-20T06:10:18;5.00;97.70
8340;DHT22;4207;49.314;7.162;2023-04-20T06:12:53;5.40;98.00
8340;DHT22;4207;49.314;7.162;2023-04-20T06:15:21;5.40;97.70
8340;DHT22;4207;49.314;7.162;2023-04-20T06:17:49;5.50;97.60
8340;DHT22;4207;49.314;7.162;2023-04-20T06:20:18;6.10;97.30
8340;DHT22;4207;49.314;7.162;2023-04-20T06:22:47;5.60;96.70
8340;DHT22;4207;49.314;7.162;2023-04-20T06:25:17;6.10;96.80
8340;DHT22;4207;49.314;7.162;2023-04-20T06:27:46;5.80;96.10
8340;DHT22;4207;49.314;7.162;2023-04-20T06:30:18;6.20;96.20
8340;DHT22;4207;49.314;7.162;2023-04-20T06:32:46;5.90;95.90
8340;DHT22;4207;49.314;7.162;2023-04-20T06:35:15;6.00;96.10
8340;DHT22;4207;49.314;7.162;2023-04-20T06:37:43;6.00;96.10
8340;DHT22;4207;49.314;7.162;2023-04-20T06:40:14;6.10;96.20
8340;DHT22;4207;49.314;7.162;2023-04-20T06:42:42;6.50;96.80
8340;DHT22;4207;49.314;7.162;2023-04-20T06:45:11;6.50;96.80
8340;DHT22;4207;49.314;7.162;2023-04-20T06:47:40;6.80;96.70
8340;DHT22;4207;49.314;7.162;2023-04-20T06:50:09;6.20;96.60
8340;DHT22;4207;49.314;7.162;2023-04-20T06:52:38;6.20;96.50
8340;DHT22;4207;49.314;7.162;2023-04-20T06:55:07;6.20;97.30
8340;DHT22;4207;49.314;7.162;2023-04-20T06:57:36;6.30;97.20
8340;DHT22;4207;49.314;7.162;2023-04-20T07:00:06;6.30;97.60
8340;DHT22;4207;49.314;7.162;2023-04-20T07:02:44;6.50;97.40
8340;DHT22;4207;49.314;7.162;2023-04-20T07:05:13;6.60;97.50
8340;DHT22;4207;49.314;7.162;2023-04-20T07:07:41;6.90;97.40
8340;DHT22;4207;49.314;7.162;2023-04-20T07:10:11;6.80;97.30
8340;DHT22;4207;49.314;7.162;2023-04-20T07:12:40;6.90;97.20
8340;DHT22;4207;49.314;7.162;2023-04-20T07:15:12;7.10;97.20
8340;DHT22;4207;49.314;7.162;2023-04-20T07:17:41;7.20;96.30
8340;DHT22;4207;49.314;7.162;2023-04-20T07:20:10;7.30;96.00
8340;DHT22;4207;49.314;7.162;2023-04-20T07:22:39;7.40;95.90
8340;DHT22;4207;49.314;7.162;2023-04-20T07:25:08;7.40;96.70
8340;DHT22;4207;49.314;7.162;2023-04-20T07:27:40;7.50;96.40
8340;DHT22;4207;49.314;7.162;2023-04-20T07:30:09;7.50;96.20
8340;DHT22;4207;49.314;7.162;2023-04-20T07:32:38;7.50;96.10
8340;DHT22;4207;49.314;7.162;2023-04-20T07:35:08;7.60;96.00
8340;DHT22;4207;49.314;7.162;2023-04-20T07:37:40;7.60;95.90
8340;DHT22;4207;49.314;7.162;2023-04-20T07:40:09;7.70;96.20
8340;DHT22;4207;49.314;7.162;2023-04-20T07:42:37;7.70;96.60
8340;DHT22;4207;49.314;7.162;2023-04-20T07:45:07;7.80;96.80
8340;DHT22;4207;49.314;7.162;2023-04-20T07:47:35;7.90;96.20
8340;DHT22;4207;49.314;7.162;2023-04-20T07:50:05;7.90;96.40
8340;DHT22;4207;49.314;7.162;2023-04-20T07:52:34;8.00;96.10
8340;DHT22;4207;49.314;7.162;2023-04-20T07:55:05;7.90;96.40
8340;DHT22;4207;49.314;7.162;2023-04-20T07:57:34;7.90;96.50
8340;DHT22;4207;49.314;7.162;2023-04-20T08:00:03;7.90;96.90
8340;DHT22;4207;49.314;7.162;2023-04-20T08:02:39;7.90;96.70
8340;DHT22;4207;49.314;7.162;2023-04-20T08:05:08;8.00;96.50
8340;DHT22;4207;49.314;7.162;2023-04-20T08:07:37;8.00;96.90
8340;DHT22;4207;49.314;7.162;2023-04-20T08:10:08;8.10;96.70
8340;DHT22;4207;49.314;7.162;2023-04-20T08:12:36;8.20;96.70
8340;DHT22;4207;49.314;7.162;2023-04-20T08:15:06;8.30;96.50
8340;DHT22;4207;49.314;7.162;2023-04-20T08:17:34;8.20;96.10
8340;DHT22;4207;49.314;7.162;2023-04-20T08:20:05;8.10;96.30
8340;DHT22;4207;49.314;7.162;2023-04-20T08:22:33;8.00;96.90
8340;DHT22;4207;49.314;7.162;2023-04-20T08:25:02;7.90;97.00
8340;DHT22;4207;49.314;7.162;2023-04-20T08:27:31;7.80;97.50
8340;DHT22;4207;49.314;7.162;2023-04-20T08:30:00;7.80;97.90
8340;DHT22;4207;49.314;7.162;2023-04-20T08:32:30;8.30;98.10
8340;DHT22;4207;49.314;7.162;2023-04-20T08:34:58;7.90;98.10
8340;DHT22;4207;49.314;7.162;2023-04-20T08:37:26;7.90;98.40
8340;DHT22;4207;49.314;7.162;2023-04-20T08:39:58;8.00;98.00
8340;DHT22;4207;49.314;7.162;2023-04-20T08:42:26;8.00;97.90
8340;DHT22;4207;49.314;7.162;2023-04-20T08:44:56;8.10;98.00
8340;DHT22;4207;49.314;7.162;2023-04-20T08:47:25;8.10;98.20
8340;DHT22;4207;49.314;7.162;2023-04-20T08:49:55;9.10;98.70
8340;DHT22;4207;49.314;7.162;2023-04-20T08:52:25;8.30;98.50
8340;DHT22;4207;49.314;7.162;2023-04-20T08:54:54;8.30;98.60
8340;DHT22;4207;49.314;7.162;2023-04-20T08:57:24;8.40;98.40
8340;DHT22;4207;49.314;7.162;2023-04-20T08:59:52;8.70;98.50
8340;DHT22;4207;49.314;7.162;2023-04-20T09:02:24;8.80;98.30
8340;DHT22;4207;49.314;7.162;2023-04-20T09:05:03;8.80;98.20
8340;DHT22;4207;49.314;7.162;2023-04-20T09:07:34;8.90;98.10
8340;DHT22;4207;49.314;7.162;2023-04-20T09:10:05;9.10;98.20
8340;DHT22;4207;49.314;7.162;2023-04-20T09:12:39;9.10;98.10
8340;DHT22;4207;49.314;7.162;2023-04-20T09:15:23;8.70;97.70
8340;DHT22;4207;49.314;7.162;2023-04-20T09:17:53;9.40;97.90
8340;DHT22;4207;49.314;7.162;2023-04-20T09:20:29;9.50;97.60
8340;DHT22;4207;49.314;7.162;2023-04-20T09:23:09;9.40;97.10
8340;DHT22;4207;49.314;7.162;2023-04-20T09:25:38;9.30;97.40
8340;DHT22;4207;49.314;7.162;2023-04-20T09:28:12;9.10;97.10
8340;DHT22;4207;49.314;7.162;2023-04-20T09:30:42;9.00;97.50
8340;DHT22;4207;49.314;7.162;2023-04-20T09:33:12;9.00;97.60
8340;DHT22;4207;49.314;7.162;2023-04-20T09:35:42;9.00;97.70
8340;DHT22;4207;49.314;7.162;2023-04-20T09:38:14;9.10;98.00
8340;DHT22;4207;49.314;7.162;2023-04-20T09:40:43;9.30;98.10
8340;DHT22;4207;49.314;7.162;2023-04-20T09:43:16;9.40;97.40
8340;DHT22;4207;49.314;7.162;2023-04-20T09:45:45;9.30;97.70
8340;DHT22;4207;49.314;7.162;2023-04-20T09:48:15;9.40;97.50
8340;DHT22;4207;49.314;7.162;2023-04-20T09:50:45;9.60;95.30
8340;DHT22;4207;49.314;7.162;2023-04-20T09:53:18;9.80;94.00
8340;DHT22;4207;49.314;7.162;2023-04-20T09:55:47;10.20;91.50
8340;DHT22;4207;49.314;7.162;2023-04-20T09:58:17;10.50;86.30
8340;DHT22;4207;49.314;7.162;2023-04-20T10:00:45;10.60;86.60
8340;DHT22;4207;49.314;7.162;2023-04-20T10:03:17;10.50;86.40
8340;DHT22;4207;49.314;7.162;2023-04-20T10:05:46;10.50;87.40
8340;DHT22;4207;49.314;7.162;2023-04-20T10:08:15;10.30;88.60
8340;DHT22;4207;49.314;7.162;2023-04-20T10:10:45;10.20;90.20
8340;DHT22;4207;49.314;7.162;2023-04-20T10:13:14;10.10;91.20
8340;DHT22;4207;49.314;7.162;2023-04-20T10:15:45;10.30;91.70
8340;DHT22;4207;49.314;7.162;2023-04-20T10:18:19;10.20;91.60
8340;DHT22;4207;49.314;7.162;2023-04-20T10:21:03;10.60;91.90
8340;DHT22;4207;49.314;7.162;2023-04-20T10:23:32;10.50;92.70
8340;DHT22;4207;49.314;7.162;2023-04-20T10:26:03;10.50;91.10
8340;DHT22;4207;49.314;7.162;2023-04-20T10:28:37;10.40;91.00
8340;DHT22;4207;49.314;7.162;2023-04-20T10:31:07;10.70;92.00
8340;DHT22;4207;49.314;7.162;2023-04-20T10:33:53;10.10;91.80
8340;DHT22;4207;49.314;7.162;2023-04-20T10:36:26;9.90;92.80
8340;DHT22;4207;49.314;7.162;2023-04-20T10:38:55;9.80;92.60
8340;DHT22;4207;49.314;7.162;2023-04-20T10:41:23;9.80;93.50
8340;DHT22;4207;49.314;7.162;2023-04-20T10:43:52;9.90;92.90
8340;DHT22;4207;49.314;7.162;2023-04-20T10:46:21;9.80;92.80
8340;DHT22;4207;49.314;7.162;2023-04-20T10:48:53;9.70;93.30
8340;DHT22;4207;49.314;7.162;2023-04-20T10:51:24;9.50;93.70
8340;DHT22;4207;49.314;7.162;2023-04-20T10:54:00;9.50;94.00
8340;DHT22;4207;49.314;7.162;2023-04-20T10:56:38;9.40;93.50
8340;DHT22;4207;49.314;7.162;2023-04-20T10:59:11;9.40;93.50
8340;DHT22;4207;49.314;7.162;2023-04-20T11:01:39;9.40;93.80
8340;DHT22;4207;49.314;7.162;2023-04-20T11:04:10;9.60;93.90
8340;DHT22;4207;49.314;7.162;2023-04-20T11:06:43;9.80;93.50
8340;DHT22;4207;49.314;7.162;2023-04-20T11:09:17;10.00;92.40
8340;DHT22;4207;49.314;7.162;2023-04-20T11:11:57;10.20;92.80
8340;DHT22;4207;49.314;7.162;2023-04-20T11:14:25;10.70;92.90
8340;DHT22;4207;49.314;7.162;2023-04-20T11:16:54;10.90;92.50
8340;DHT22;4207;49.314;7.162;2023-04-20T11:19:25;11.10;92.80
8340;DHT22;4207;49.314;7.162;2023-04-20T11:21:53;11.30;91.40
8340;DHT22;4207;49.314;7.162;2023-04-20T11:24:23;11.50;91.30
8340;DHT22;4207;49.314;7.162;2023-04-20T11:26:52;11.70;91.60
8340;DHT22;4207;49.314;7.162;2023-04-20T11:29:28;11.70;90.80
8340;DHT22;4207;49.314;7.162;2023-04-20T11:31:59;11.70;90.40
8340;DHT22;4207;49.314;7.162;2023-04-20T11:34:29;11.50;90.80
8340;DHT22;4207;49.314;7.162;2023-04-20T11:37:02;11.40;90.10
8340;DHT22;4207;49.314;7.162;2023-04-20T11:39:31;11.20;90.00
8340;DHT22;4207;49.314;7.162;2023-04-20T11:41:59;11.30;91.50
8340;DHT22;4207;49.314;7.162;2023-04-20T11:44:27;10.80;90.80
8340;DHT22;4207;49.314;7.162;2023-04-20T11:46:56;10.60;91.20
8340;DHT22;4207;49.314;7.162;2023-04-20T11:49:26;10.60;91.10
8340;DHT22;4207;49.314;7.162;2023-04-20T11:51:56;10.60;90.40
8340;DHT22;4207;49.314;7.162;2023-04-20T11:54:24;10.80;90.00
8340;DHT22;4207;49.314;7.162;2023-04-20T11:56:53;11.00;90.90
8340;DHT22;4207;49.314;7.162;2023-04-20T11:59:22;11.40;91.10
8340;DHT22;4207;49.314;7.162;2023-04-20T12:01:51;11.60;90.50
8340;DHT22;4207;49.314;7.162;2023-04-20T12:04:22;11.70;90.10
8340;DHT22;4207;49.314;7.162;2023-04-20T12:06:50;11.60;89.60
8340;DHT22;4207;49.314;7.162;2023-04-20T12:09:20;11.60;88.20
8340;DHT22;4207;49.314;7.162;2023-04-20T12:11:48;11.10;90.30
8340;DHT22;4207;49.314;7.162;2023-04-20T12:14:16;11.00;90.20
8340;DHT22;4207;49.314;7.162;2023-04-20T12:16:45;10.90;90.40
8340;DHT22;4207;49.314;7.162;2023-04-20T12:19:14;11.00;90.50
8340;DHT22;4207;49.314;7.162;2023-04-20T12:21:43;10.80;90.80
8340;DHT22;4207;49.314;7.162;2023-04-20T12:24:13;10.90;91.10
8340;DHT22;4207;49.314;7.162;2023-04-20T12:26:42;11.10;90.50
8340;DHT22;4207;49.314;7.162;2023-04-20T12:29:10;11.30;88.80
8340;DHT22;4207;49.314;7.162;2023-04-20T12:31:38;11.30;88.10
8340;DHT22;4207;49.314;7.162;2023-04-20T12:34:06;11.30;89.40
8340;DHT22;4207;49.314;7.162;2023-04-20T12:36:35;11.20;89.30
8340;DHT22;4207;49.314;7.162;2023-04-20T12:39:03;11.30;90.30
8340;DHT22;4207;49.314;7.162;2023-04-20T12:41:31;11.20;89.50
8340;DHT22;4207;49.314;7.162;2023-04-20T12:44:01;11.30;87.00
8340;DHT22;4207;49.314;7.162;2023-04-20T12:46:33;11.40;88.40
8340;DHT22;4207;49.314;7.162;2023-04-20T12:49:01;11.70;89.30
8340;DHT22;4207;49.314;7.162;2023-04-20T12:51:29;12.00;88.10
8340;DHT22;4207;49.314;7.162;2023-04-20T12:54:00;12.30;85.60
8340;DHT22;4207;49.314;7.162;2023-04-20T12:56:28;12.30;85.50
8340;DHT22;4207;49.314;7.162;2023-04-20T12:58:56;12.20;86.00
8340;DHT22;4207;49.314;7.162;2023-04-20T13:01:26;12.00;89.60
8340;DHT22;4207;49.314;7.162;2023-04-20T13:03:54;11.60;94.70
8340;DHT22;4207;49.314;7.162;2023-04-20T13:06:25;11.00;97.90
8340;DHT22;4207;49.314;7.162;2023-04-20T13:08:54;10.40;99.80
8340;DHT22;4207;49.314;7.162;2023-04-20T13:11:22;10.00;99.90
8340;DHT22;4207;49.314;7.162;2023-04-20T13:13:54;9.60;99.90
8340;DHT22;4207;49.314;7.162;2023-04-20T13:16:25;9.50;99.90
8340;DHT22;4207;49.314;7.162;2023-04-20T13:18:55;9.40;99.90
8340;DHT22;4207;49.314;7.162;2023-04-20T13:21:23;9.40;99.90
8340;DHT22;4207;49.314;7.162;2023-04-20T13:23:51;9.80;99.90
8340;DHT22;4207;49.314;7.162;2023-04-20T13:26:22;9.60;99.90
8340;DHT22;4207;49.314;7.162;2023-04-20T13:28:50;9.90;99.90
8340;DHT22;4207;49.314;7.162;2023-04-20T13:31:19;9.60;99.90
8340;DHT22;4207;49.314;7.162;2023-04-20T13:33:49;9.70;99.90
8340;DHT22;4207;49.314;7.162;2023-04-20T13:36:20;9.90;99.90
8340;DHT22;4207;49.314;7.162;2023-04-20T13:38:48;9.90;99.90
8340;DHT22;4207;49.314;7.162;2023-04-20T13:41:20;10.00;99.90
8340;DHT22;4207;49.314;7.162;2023-04-20T13:43:49;10.30;99.90
8340;DHT22;4207;49.314;7.162;2023-04-20T13:46:17;10.70;99.50
8340;DHT22;4207;49.314;7.162;2023-04-20T13:48:46;10.90;97.20
8340;DHT22;4207;49.314;7.162;2023-04-20T13:51:16;11.10;96.80
8340;DHT22;4207;49.314;7.162;2023-04-20T13:53:44;11.20;96.70
8340;DHT22;4207;49.314;7.162;2023-04-20T13:56:14;11.10;96.50
8340;DHT22;4207;49.314;7.162;2023-04-20T13:58:42;10.90;99.90
8340;DHT22;4207;49.314;7.162;2023-04-20T14:01:11;10.50;99.90
8340;DHT22;4207;49.314;7.162;2023-04-20T14:03:42;10.20;99.90
8340;DHT22;4207;49.314;7.162;2023-04-20T14:06:11;9.90;99.90
8340;DHT22;4207;49.314;7.162;2023-04-20T14:08:40;9.60;99.90
8340;DHT22;4207;49.314;7.162;2023-04-20T14:11:09;9.40;99.90
8340;DHT22;4207;49.314;7.162;2023-04-20T14:13:37;9.30;99.90
8340;DHT22;4207;49.314;7.162;2023-04-20T14:16:06;9.20;99.90
8340;DHT22;4207;49.314;7.162;2023-04-20T14:18:36;9.20;99.90
8340;DHT22;4207;49.314;7.162;2023-04-20T14:21:05;9.20;99.90
8340;DHT22;4207;49.314;7.162;2023-04-20T14:23:33;9.60;99.90
8340;DHT22;4207;49.314;7.162;2023-04-20T14:26:03;9.30;99.90
8340;DHT22;4207;49.314;7.162;2023-04-20T14:28:33;9.30;99.90
8340;DHT22;4207;49.314;7.162;2023-04-20T14:31:02;9.30;99.90
8340;DHT22;4207;49.314;7.162;2023-04-20T14:33:30;9.40;99.90
8340;DHT22;4207;49.314;7.162;2023-04-20T14:35:58;9.60;99.90
8340;DHT22;4207;49.314;7.162;2023-04-20T14:38:26;9.30;99.90
8340;DHT22;4207;49.314;7.162;2023-04-20T14:40:54;9.40;99.90
8340;DHT22;4207;49.314;7.162;2023-04-20T14:43:24;10.00;99.90
8340;DHT22;4207;49.314;7.162;2023-04-20T14:45:54;9.70;99.90
8340;DHT22;4207;49.314;7.162;2023-04-20T14:48:24;9.70;99.90
8340;DHT22;4207;49.314;7.162;2023-04-20T14:50:52;10.00;99.90
8340;DHT22;4207;49.314;7.162;2023-04-20T14:53:20;10.20;99.90
8340;DHT22;4207;49.314;7.162;2023-04-20T14:55:48;10.40;99.90
8340;DHT22;4207;49.314;7.162;2023-04-20T14:58:17;10.40;99.90
8340;DHT22;4207;49.314;7.162;2023-04-20T15:00:47;10.50;99.90
8340;DHT22;4207;49.314;7.162;2023-04-20T15:03:16;10.60;99.90
8340;DHT22;4207;49.314;7.162;2023-04-20T15:05:45;10.60;99.90
8340;DHT22;4207;49.314;7.162;2023-04-20T15:08:16;10.50;99.90
8340;DHT22;4207;49.314;7.162;2023-04-20T15:10:44;10.40;99.90
8340;DHT22;4207;49.314;7.162;2023-04-20T15:13:12;10.30;99.90
8340;DHT22;4207;49.314;7.162;2023-04-20T15:15:41;10.20;99.90
8340;DHT22;4207;49.314;7.162;2023-04-20T15:18:17;10.00;99.90
8340;DHT22;4207;49.314;7.162;2023-04-20T15:20:45;10.00;99.90
8340;DHT22;4207;49.314;7.162;2023-04-20T15:23:14;9.90;99.90
8340;DHT22;4207;49.314;7.162;2023-04-20T15:25:42;9.90;99.90
8340;DHT22;4207;49.314;7.162;2023-04-20T15:28:10;9.90;99.90
8340;DHT22;4207;49.314;7.162;2023-04-20T15:30:38;9.90;99.90
8340;DHT22;4207;49.314;7.162;2023-04-20T15:33:07;10.00;99.90
8340;DHT22;4207;49.314;7.162;2023-04-20T15:35:36;10.20;99.90
8340;DHT22;4207;49.314;7.162;2023-04-20T15:38:05;10.30;99.50
8340;DHT22;4207;49.314;7.162;2023-04-20T15:40:33;10.50;99.90
8340;DHT22;4207;49.314;7.162;2023-04-20T15:43:01;10.70;99.90
8340;DHT22;4207;49.314;7.162;2023-04-20T15:45:30;10.80;99.90
8340;DHT22;4207;49.314;7.162;2023-04-20T15:47:58;10.90;99.30
8340;DHT22;4207;49.314;7.162;2023-04-20T15:50:26;10.90;98.50
8340;DHT22;4207;49.314;7.162;2023-04-20T15:52:57;10.90;98.10
8340;DHT22;4207;49.314;7.162;2023-04-20T15:55:25;10.80;97.80
8340;DHT22;4207;49.314;7.162;2023-04-20T15:57:53;10.80;98.20
8340;DHT22;4207;49.314;7.162;2023-04-20T16:00:24;10.90;98.30
8340;DHT22;4207;49.314;7.162;2023-04-20T16:02:52;10.60;98.30
8340;DHT22;4207;49.314;7.162;2023-04-20T16:05:21;10.40;98.80
8340;DHT22;4207;49.314;7.162;2023-04-20T16:07:49;10.20;99.80
8340;DHT22;4207;49.314;7.162;2023-04-20T16:10:20;10.10;99.60
8340;DHT22;4207;49.314;7.162;2023-04-20T16:12:49;10.10;99.90
8340;DHT22;4207;49.314;7.162;2023-04-20T16:15:17;10.00;99.90
8340;DHT22;4207;49.314;7.162;2023-04-20T16:17:45;9.90;99.90
8340;DHT22;4207;49.314;7.162;2023-04-20T16:20:14;9.80;99.90
8340;DHT22;4207;49.314;7.162;2023-04-20T16:22:43;9.40;99.90
8340;DHT22;4207;49.314;7.162;2023-04-20T16:25:12;9.20;99.90
8340;DHT22;4207;49.314;7.162;2023-04-20T16:27:50;9.00;99.90
8340;DHT22;4207;49.314;7.162;2023-04-20T16:30:18;8.70;99.90
8340;DHT22;4207;49.314;7.162;2023-04-20T16:32:47;8.60;99.90